Time;durP1;ratioP1;P1;durP2;ratioP2;P2;SDS_P1;SDS_P2;PMS_P1;PMS_P2;Temp;Humidity;BMP_temperature;BMP_pressure;BME280_temperature;BME280_humidity;BME280_pressure;Samples;Min_cycle;Max_cycle;Signal;HPM_P1;HPM_P2
2021/10/30 00:01:52;;;;;;;4.35;3.45;;;26.60;99.90;;;;;;4189681;28;20534;-69
2021/10/30 00:03:56;;;;;;;3.75;2.70;;;26.60;99.90;;;;;;4186918;28;20048;-69
2021/10/30 00:06:01;;;;;;;4.57;2.67;;;26.60;99.90;;;;;;4194851;28;20083;-68
2021/10/30 00:08:07;;;;;;;4.30;2.83;;;26.60;99.90;;;;;;4202801;28;20538;-68
2021/10/30 00:10:12;;;;;;;3.90;2.58;;;26.60;99.90;;;;;;4200893;28;20032;-69
2021/10/30 00:12:16;;;;;;;3.10;2.38;;;26.70;99.90;;;;;;4190335;28;20452;-67
2021/10/30 00:14:22;;;;;;;4.03;2.63;;;26.70;99.90;;;;;;4190853;28;20139;-69
2021/10/30 00:16:27;;;;;;;3.65;2.45;;;26.70;99.90;;;;;;4198304;28;20540;-68
2021/10/30 00:18:32;;;;;;;3.88;2.25;;;26.70;99.90;;;;;;4192988;28;20056;-67
2021/10/30 00:20:36;;;;;;;2.78;2.00;;;26.70;99.90;;;;;;4192475;28;20052;-71
2021/10/30 00:22:43;;;;;;;2.70;2.20;;;26.70;99.90;;;;;;4190168;28;20068;-69
2021/10/30 00:24:47;;;;;;;3.30;2.20;;;26.80;99.90;;;;;;4187464;28;20075;-72
2021/10/30 00:26:52;;;;;;;3.65;2.42;;;26.80;99.90;;;;;;4190495;28;20461;-69
2021/10/30 00:28:56;;;;;;;3.65;2.30;;;26.80;99.90;;;;;;4188970;28;20106;-69
2021/10/30 00:31:02;;;;;;;3.30;2.40;;;26.80;99.90;;;;;;4191085;28;20453;-69
2021/10/30 00:33:09;;;;;;;3.50;2.33;;;26.80;99.90;;;;;;4182585;28;20548;-69
2021/10/30 00:35:14;;;;;;;4.70;1.98;;;26.90;99.90;;;;;;4186973;28;20530;-69
2021/10/30 00:37:18;;;;;;;3.88;2.15;;;26.90;99.90;;;;;;4195606;28;20584;-70
2021/10/30 00:39:23;;;;;;;4.43;1.85;;;26.80;99.90;;;;;;4191581;28;20036;-70
2021/10/30 00:41:27;;;;;;;4.13;1.90;;;26.80;99.90;;;;;;4191654;28;20563;-72
2021/10/30 00:43:35;;;;;;;2.65;1.60;;;26.80;99.90;;;;;;4187136;28;20049;-69
2021/10/30 00:45:44;;;;;;;5.28;1.80;;;26.80;99.90;;;;;;4187271;28;20059;-70
2021/10/30 00:47:49;;;;;;;3.20;2.10;;;26.90;99.90;;;;;;4191317;28;20052;-70
2021/10/30 00:49:53;;;;;;;2.33;1.75;;;26.90;99.90;;;;;;4191278;28;20431;-69
2021/10/30 00:51:58;;;;;;;2.78;1.85;;;27.00;99.90;;;;;;4189783;28;20050;-71
2021/10/30 00:54:03;;;;;;;2.08;1.65;;;27.00;99.90;;;;;;4180645;28;20040;-69
2021/10/30 00:56:07;;;;;;;4.05;1.55;;;27.00;99.90;;;;;;4189768;28;20044;-69
2021/10/30 00:58:12;;;;;;;2.53;1.58;;;27.00;99.90;;;;;;4191314;28;20143;-70
2021/10/30 01:00:16;;;;;;;3.35;1.60;;;27.10;99.90;;;;;;4188967;28;20076;-70
2021/10/30 01:02:25;;;;;;;4.63;1.63;;;27.10;99.90;;;;;;4187815;28;20165;-71
2021/10/30 01:04:30;;;;;;;2.17;1.50;;;27.20;99.90;;;;;;4185911;28;20090;-69
2021/10/30 01:06:37;;;;;;;3.15;1.60;;;27.10;99.90;;;;;;4192646;28;20049;-70
2021/10/30 01:08:41;;;;;;;2.10;1.60;;;27.20;99.90;;;;;;4188546;28;20442;-69
2021/10/30 01:10:47;;;;;;;3.17;1.85;;;27.20;99.90;;;;;;4189313;28;20048;-69
2021/10/30 01:12:51;;;;;;;3.42;1.77;;;27.20;99.90;;;;;;4183519;28;20121;-71
2021/10/30 01:14:56;;;;;;;2.53;1.52;;;27.30;99.90;;;;;;4184234;28;20535;-70
2021/10/30 01:17:03;;;;;;;2.78;1.40;;;27.20;99.90;;;;;;4188964;28;20514;-70
2021/10/30 01:19:08;;;;;;;13.55;1.60;;;27.10;99.90;;;;;;4191819;28;20044;-70
2021/10/30 01:21:13;;;;;;;5.35;1.63;;;27.10;99.90;;;;;;4189969;28;20522;-70
2021/10/30 01:23:19;;;;;;;2.55;1.25;;;27.20;99.90;;;;;;4165850;28;20041;-69
2021/10/30 01:25:25;;;;;;;2.30;1.10;;;27.20;99.90;;;;;;4188835;28;20086;-70
2021/10/30 01:27:29;;;;;;;1.70;1.20;;;27.30;99.90;;;;;;4191334;28;20051;-68
2021/10/30 01:29:34;;;;;;;2.10;1.10;;;27.30;99.90;;;;;;4188624;28;20082;-69
2021/10/30 01:31:40;;;;;;;3.63;1.13;;;27.40;99.90;;;;;;4189213;28;20055;-69
2021/10/30 01:33:47;;;;;;;4.30;1.50;;;27.40;99.90;;;;;;4180929;28;20097;-70
2021/10/30 01:35:51;;;;;;;4.32;1.48;;;27.50;99.90;;;;;;4188789;28;20037;-70
2021/10/30 01:37:57;;;;;;;5.18;1.60;;;27.50;99.90;;;;;;4187862;28;20075;-70
2021/10/30 01:40:03;;;;;;;4.13;1.30;;;27.50;99.90;;;;;;4190686;28;20044;-70
2021/10/30 01:42:08;;;;;;;4.60;1.33;;;27.50;99.90;;;;;;4188197;28;20082;-70
2021/10/30 01:44:12;;;;;;;2.92;1.13;;;27.60;99.90;;;;;;4180719;28;20045;-70
2021/10/30 01:46:18;;;;;;;5.70;1.20;;;27.60;99.90;;;;;;4188964;28;20099;-69
2021/10/30 01:48:32;;;;;;;4.38;1.30;;;27.70;99.90;;;;;;4190337;28;20064;-70
2021/10/30 01:50:38;;;;;;;5.15;1.45;;;27.70;99.90;;;;;;4188524;28;20052;-69
2021/10/30 01:52:43;;;;;;;3.65;0.98;;;27.70;99.90;;;;;;4183502;28;20044;-69
2021/10/30 01:54:48;;;;;;;2.78;1.05;;;27.70;99.90;;;;;;4185236;28;20053;-70
2021/10/30 01:56:53;;;;;;;3.13;1.05;;;27.70;99.90;;;;;;4189293;28;20388;-69
2021/10/30 01:58:58;;;;;;;4.32;1.30;;;27.80;99.90;;;;;;4188950;28;20217;-70
2021/10/30 02:01:04;;;;;;;3.70;1.10;;;27.80;99.90;;;;;;4189451;28;20376;-70
2021/10/30 02:03:10;;;;;;;5.88;1.88;;;27.90;99.90;;;;;;4181468;28;20094;-70
2021/10/30 02:05:15;;;;;;;3.67;1.17;;;27.90;99.90;;;;;;4187620;28;20136;-70
2021/10/30 02:07:20;;;;;;;2.60;1.35;;;28.00;99.90;;;;;;4189634;28;20101;-70
2021/10/30 02:09:26;;;;;;;1.35;0.98;;;28.00;99.90;;;;;;4191996;28;20082;-70
2021/10/30 02:11:30;;;;;;;2.42;1.30;;;28.10;99.90;;;;;;4190119;28;20044;-70
2021/10/30 02:13:35;;;;;;;2.38;1.10;;;28.10;99.90;;;;;;4181026;28;20064;-70
2021/10/30 02:15:40;;;;;;;4.47;1.20;;;28.10;99.90;;;;;;4188044;28;20037;-69
2021/10/30 02:17:46;;;;;;;3.05;1.20;;;28.20;99.90;;;;;;4191964;28;20055;-70
2021/10/30 02:19:53;;;;;;;4.53;1.45;;;28.20;99.90;;;;;;4189208;28;20068;-70
2021/10/30 02:21:57;;;;;;;3.42;1.10;;;28.30;99.90;;;;;;4189593;28;20284;-70
2021/10/30 02:24:02;;;;;;;3.42;1.42;;;28.30;99.90;;;;;;4177813;28;20044;-70
2021/10/30 02:26:06;;;;;;;3.47;1.23;;;28.30;99.90;;;;;;4190931;28;20111;-71
2021/10/30 02:28:11;;;;;;;4.45;1.20;;;28.30;99.90;;;;;;4190238;28;20044;-70
2021/10/30 02:30:16;;;;;;;3.28;1.33;;;28.40;99.90;;;;;;4189356;28;20410;-71
2021/10/30 02:32:20;;;;;;;4.38;1.15;;;28.40;99.90;;;;;;4187463;28;20040;-70
2021/10/30 02:34:25;;;;;;;4.03;1.02;;;28.40;99.90;;;;;;4180111;28;20506;-70
2021/10/30 02:36:29;;;;;;;13.75;1.33;;;28.50;99.90;;;;;;4187298;28;20075;-70
2021/10/30 02:38:34;;;;;;;4.80;1.02;;;28.50;99.90;;;;;;4189022;28;20349;-69
2021/10/30 02:40:39;;;;;;;1.98;1.00;;;28.50;99.90;;;;;;4171812;28;20048;-70
2021/10/30 02:42:44;;;;;;;2.38;1.10;;;28.50;99.90;;;;;;4187385;28;20058;-70
2021/10/30 02:44:49;;;;;;;3.10;1.13;;;28.50;99.90;;;;;;4183764;28;20040;-71
2021/10/30 02:46:53;;;;;;;4.50;1.15;;;28.60;99.90;;;;;;4192534;28;20051;-70
2021/10/30 02:48:58;;;;;;;3.78;1.35;;;28.60;99.90;;;;;;4190604;28;20048;-69
2021/10/30 02:51:02;;;;;;;5.47;1.48;;;28.60;99.90;;;;;;4188553;28;20388;-68
2021/10/30 02:53:07;;;;;;;2.33;1.20;;;28.60;99.90;;;;;;4181900;28;20419;-71
2021/10/30 02:55:11;;;;;;;2.10;1.33;;;28.70;99.90;;;;;;4185733;28;20141;-69
2021/10/30 02:57:16;;;;;;;3.47;1.40;;;28.70;99.90;;;;;;4187121;28;20115;-69
2021/10/30 02:59:25;;;;;;;2.28;1.00;;;28.70;99.90;;;;;;4186914;28;20534;-71
2021/10/30 03:01:29;;;;;;;3.22;1.42;;;28.70;99.90;;;;;;4186343;28;20509;-70
2021/10/30 03:03:34;;;;;;;3.38;1.80;;;28.70;99.90;;;;;;4182092;28;20469;-71
2021/10/30 03:05:39;;;;;;;3.67;1.58;;;28.60;99.90;;;;;;4185571;28;20076;-70
2021/10/30 03:07:43;;;;;;;3.67;1.48;;;28.60;99.90;;;;;;4188238;28;20060;-71
2021/10/30 03:09:51;;;;;;;9.52;4.45;;;28.60;99.90;;;;;;4186277;28;20134;-71
2021/10/30 03:11:57;;;;;;;6.88;3.90;;;28.80;99.90;;;;;;4187982;28;20052;-71
2021/10/30 03:14:01;;;;;;;7.57;3.30;;;28.70;99.90;;;;;;4180666;28;20048;-71
2021/10/30 03:16:06;;;;;;;7.68;1.98;;;28.90;99.90;;;;;;4194011;28;20071;-71
2021/10/30 03:18:10;;;;;;;2.30;1.25;;;29.00;99.90;;;;;;4192334;28;20062;-70
2021/10/30 03:20:15;;;;;;;1.80;1.13;;;29.10;99.90;;;;;;4189155;28;20493;-69
2021/10/30 03:22:20;;;;;;;3.45;1.20;;;29.20;99.90;;;;;;4189211;28;20039;-70
2021/10/30 03:24:24;;;;;;;4.03;1.73;;;29.20;99.90;;;;;;4181188;28;20332;-71
2021/10/30 03:26:29;;;;;;;4.63;2.30;;;29.10;99.90;;;;;;4187899;28;20048;-69
2021/10/30 03:28:33;;;;;;;5.03;1.90;;;29.10;99.90;;;;;;4192448;28;20438;-72
2021/10/30 03:30:38;;;;;;;5.35;2.05;;;29.30;99.90;;;;;;4191786;28;20414;-69
2021/10/30 03:32:43;;;;;;;4.22;1.90;;;29.30;99.90;;;;;;4185821;28;20052;-69
2021/10/30 03:34:48;;;;;;;4.75;1.30;;;29.40;99.90;;;;;;4187333;28;20040;-69
2021/10/30 03:36:52;;;;;;;2.88;1.17;;;29.40;99.90;;;;;;4189258;28;20131;-69
2021/10/30 03:38:57;;;;;;;1.60;0.98;;;29.50;99.90;;;;;;4189900;28;20123;-72
2021/10/30 03:41:01;;;;;;;2.42;1.10;;;29.60;99.90;;;;;;4190473;28;20759;-69
2021/10/30 03:43:08;;;;;;;1.90;1.00;;;29.40;99.90;;;;;;4178917;28;20059;-69
2021/10/30 03:45:13;;;;;;;4.13;1.50;;;29.40;99.90;;;;;;4186346;28;20546;-70
2021/10/30 03:47:17;;;;;;;8.95;1.67;;;29.60;99.90;;;;;;4181402;28;20611;-69
2021/10/30 03:49:22;;;;;;;5.40;2.03;;;29.60;99.90;;;;;;4193198;28;20051;-69
2021/10/30 03:51:26;;;;;;;4.20;1.10;;;29.60;99.90;;;;;;4192727;28;20098;-69
2021/10/30 03:53:31;;;;;;;2.60;1.05;;;29.40;99.90;;;;;;4181393;28;20127;-71
2021/10/30 03:55:36;;;;;;;3.53;1.25;;;29.40;99.90;;;;;;4183462;28;20044;-68
2021/10/30 03:57:41;;;;;;;3.15;1.17;;;29.50;99.90;;;;;;4189004;28;20538;-68
2021/10/30 03:59:45;;;;;;;2.97;1.40;;;29.50;99.90;;;;;;4190582;28;20573;-69
2021/10/30 04:01:50;;;;;;;4.57;1.23;;;29.50;99.90;;;;;;4190344;28;20060;-69
2021/10/30 04:03:54;;;;;;;3.45;1.38;;;29.40;99.90;;;;;;4180198;28;20490;-69
2021/10/30 04:05:59;;;;;;;3.88;1.27;;;29.50;99.90;;;;;;4192198;28;20048;-68
2021/10/30 04:08:05;;;;;;;2.85;1.20;;;29.60;99.90;;;;;;4192435;28;20048;-69
2021/10/30 04:10:10;;;;;;;3.78;1.05;;;29.60;99.90;;;;;;4190968;28;20546;-70
2021/10/30 04:12:17;;;;;;;3.95;1.27;;;29.80;99.90;;;;;;4189488;28;20068;-69
2021/10/30 04:14:22;;;;;;;2.72;1.15;;;29.80;99.90;;;;;;4182367;28;20376;-70
2021/10/30 04:16:26;;;;;;;4.85;1.20;;;29.80;99.90;;;;;;4191595;28;20051;-69
2021/10/30 04:18:31;;;;;;;3.88;1.30;;;29.70;99.90;;;;;;4182947;28;20044;-69
2021/10/30 04:20:35;;;;;;;3.00;1.30;;;29.70;99.90;;;;;;4191412;28;20044;-69
2021/10/30 04:22:40;;;;;;;3.20;1.30;;;29.90;99.90;;;;;;4187322;28;20052;-68
2021/10/30 04:24:45;;;;;;;4.35;1.45;;;30.00;99.90;;;;;;4185920;28;20110;-68
2021/10/30 04:26:49;;;;;;;3.15;1.30;;;30.00;99.90;;;;;;4193441;28;20055;-68
2021/10/30 04:28:54;;;;;;;2.97;1.55;;;29.90;99.90;;;;;;4188569;28;20314;-68
2021/10/30 04:31:02;;;;;;;2.33;1.40;;;29.80;99.90;;;;;;4191392;28;20084;-69
2021/10/30 04:33:12;;;;;;;4.45;1.40;;;29.90;99.90;;;;;;4184402;28;20048;-69
2021/10/30 04:35:17;;;;;;;5.88;1.65;;;30.20;99.90;;;;;;4184575;28;20114;-69
2021/10/30 04:37:21;;;;;;;5.88;1.50;;;30.30;99.90;;;;;;4177453;28;20068;-69
2021/10/30 04:39:26;;;;;;;2.42;1.10;;;30.20;99.90;;;;;;4188091;28;20048;-69
2021/10/30 04:41:30;;;;;;;3.25;1.20;;;30.20;99.50;;;;;;4191321;28;20131;-70
2021/10/30 04:43:35;;;;;;;2.25;0.98;;;30.30;99.30;;;;;;4181494;28;20486;-68
2021/10/30 04:45:40;;;;;;;2.65;1.08;;;30.20;99.20;;;;;;4187064;28;20056;-68
2021/10/30 04:47:45;;;;;;;4.95;1.48;;;30.00;99.20;;;;;;4190466;28;20118;-68
2021/10/30 04:49:50;;;;;;;3.47;1.15;;;30.10;99.70;;;;;;4190762;28;20159;-68
2021/10/30 04:51:54;;;;;;;2.35;1.00;;;30.10;99.30;;;;;;4184278;28;20056;-68
2021/10/30 04:53:59;;;;;;;4.05;1.27;;;30.00;99.40;;;;;;4183925;28;20163;-68
2021/10/30 04:56:04;;;;;;;3.55;1.15;;;30.10;99.60;;;;;;4189506;28;20041;-69
2021/10/30 04:58:09;;;;;;;2.67;0.88;;;30.00;98.90;;;;;;4185603;28;20766;-67
2021/10/30 05:00:16;;;;;;;4.07;1.08;;;29.90;99.20;;;;;;4184715;28;20045;-68
2021/10/30 05:02:21;;;;;;;2.97;1.00;;;29.90;99.50;;;;;;4187336;28;20098;-68
2021/10/30 05:04:26;;;;;;;3.33;1.13;;;29.90;99.90;;;;;;4187229;28;20645;-68
2021/10/30 05:06:30;;;;;;;2.13;1.17;;;30.20;98.70;;;;;;4185061;28;20052;-68
2021/10/30 05:08:35;;;;;;;3.42;1.23;;;30.20;99.20;;;;;;4172494;28;20049;-72
2021/10/30 05:10:39;;;;;;;5.10;1.25;;;30.40;99.00;;;;;;4185252;28;20052;-72
2021/10/30 05:12:43;;;;;;;3.78;1.20;;;30.30;98.90;;;;;;4177334;28;21072;-75
2021/10/30 05:14:48;;;;;;;3.00;0.90;;;30.30;98.80;;;;;;4185078;28;20519;-73
2021/10/30 05:16:53;;;;;;;1.85;0.80;;;30.30;98.90;;;;;;4189719;28;20083;-72
2021/10/30 05:18:57;;;;;;;4.90;0.80;;;30.30;98.90;;;;;;4186773;28;20155;-72
2021/10/30 05:21:02;;;;;;;1.98;0.85;;;30.40;98.60;;;;;;4188610;28;20049;-71
2021/10/30 05:23:06;;;;;;;2.75;0.82;;;30.50;98.80;;;;;;4181583;28;20113;-71
2021/10/30 05:25:11;;;;;;;2.58;0.90;;;30.40;98.20;;;;;;4188977;28;20048;-71
2021/10/30 05:27:16;;;;;;;2.15;0.75;;;30.50;98.40;;;;;;4187631;28;20358;-71
2021/10/30 05:29:20;;;;;;;4.97;1.15;;;30.60;98.20;;;;;;4187573;28;20036;-71
2021/10/30 05:31:25;;;;;;;1.85;0.80;;;30.60;98.60;;;;;;4188923;28;20384;-73
2021/10/30 05:33:30;;;;;;;2.75;1.08;;;30.60;97.80;;;;;;4181443;28;20113;-72
2021/10/30 05:35:54;;;;;;;2.42;0.95;;;30.60;97.50;;;;;;4186796;28;20071;-72
2021/10/30 05:38:17;;;;;;;3.83;1.00;;;30.50;97.90;;;;;;4186862;28;20121;-73
2021/10/30 05:40:22;;;;;;;2.75;1.27;;;30.50;97.90;;;;;;4189225;28;20044;-72
2021/10/30 05:42:27;;;;;;;1.90;1.20;;;30.50;97.50;;;;;;4181694;28;20758;-71
2021/10/30 05:44:33;;;;;;;2.67;1.05;;;30.60;97.70;;;;;;4172715;28;20441;-72
2021/10/30 05:46:37;;;;;;;1.95;1.00;;;30.70;97.80;;;;;;4186983;28;20044;-71
2021/10/30 05:48:42;;;;;;;3.08;0.88;;;30.90;98.30;;;;;;4179392;28;20040;-71
2021/10/30 05:50:47;;;;;;;2.83;1.08;;;30.90;97.70;;;;;;4187726;28;20414;-72
2021/10/30 05:52:52;;;;;;;6.13;1.20;;;30.90;97.60;;;;;;4183747;28;20449;-70
2021/10/30 05:54:57;;;;;;;2.60;0.95;;;30.70;96.90;;;;;;4187858;28;20056;-74
2021/10/30 05:57:03;;;;;;;2.33;1.00;;;30.60;97.00;;;;;;4189799;28;20045;-72
2021/10/30 05:59:08;;;;;;;2.30;1.00;;;30.70;96.70;;;;;;4189915;28;20041;-73
2021/10/30 06:01:12;;;;;;;2.38;1.00;;;30.70;96.70;;;;;;4189401;28;20084;-72
2021/10/30 06:03:17;;;;;;;3.67;1.20;;;30.80;97.30;;;;;;4182637;28;20090;-71
2021/10/30 06:05:22;;;;;;;2.78;1.20;;;30.70;97.50;;;;;;4189657;28;20036;-72
2021/10/30 06:07:29;;;;;;;2.60;1.25;;;30.80;97.20;;;;;;4190546;28;20135;-72
2021/10/30 06:09:33;;;;;;;2.50;1.00;;;30.80;97.00;;;;;;4191280;28;20402;-72
2021/10/30 06:11:38;;;;;;;4.50;1.88;;;30.90;97.40;;;;;;4191012;28;20558;-72
2021/10/30 06:13:43;;;;;;;4.47;2.08;;;30.90;97.30;;;;;;4181853;28;20106;-72
2021/10/30 06:15:47;;;;;;;5.47;3.08;;;30.90;97.20;;;;;;4189979;28;20474;-73
2021/10/30 06:17:51;;;;;;;2.15;1.42;;;31.00;97.40;;;;;;4192163;28;20068;-72
2021/10/30 06:19:55;;;;;;;3.28;1.27;;;31.00;97.10;;;;;;4168993;28;20060;-72
2021/10/30 06:21:59;;;;;;;2.20;0.90;;;31.00;97.00;;;;;;4190133;28;20063;-72
2021/10/30 06:24:07;;;;;;;1.40;0.70;;;31.00;95.70;;;;;;4174003;28;20045;-71
2021/10/30 06:26:40;;;;;;;2.03;0.93;;;31.00;96.00;;;;;;4135366;28;20330;-71
2021/10/30 06:28:54;;;;;;;1.88;0.70;;;31.10;96.10;;;;;;4159582;28;20053;-71
2021/10/30 06:31:28;;;;;;;1.85;0.80;;;31.00;95.70;;;;;;4150828;28;20599;-71
2021/10/30 06:33:47;;;;;;;2.85;0.98;;;31.00;95.90;;;;;;4051876;28;20086;-71
2021/10/30 06:35:51;;;;;;;3.30;1.20;;;30.90;97.00;;;;;;4110935;28;20053;-70
2021/10/30 06:37:57;;;;;;;4.07;1.13;;;30.90;97.30;;;;;;4134800;28;20077;-70
2021/10/30 06:40:02;;;;;;;3.30;1.10;;;31.00;97.00;;;;;;4117073;28;21727;-71
2021/10/30 06:42:07;;;;;;;2.75;1.10;;;31.10;96.80;;;;;;4127484;28;20092;-71
2021/10/30 06:44:12;;;;;;;2.75;0.98;;;31.10;97.10;;;;;;4127742;28;20088;-70
2021/10/30 06:46:18;;;;;;;2.63;0.93;;;31.20;95.90;;;;;;4133260;28;20075;-70
2021/10/30 06:48:24;;;;;;;3.78;1.00;;;31.30;96.10;;;;;;4137850;28;20064;-72
2021/10/30 06:50:30;;;;;;;3.88;1.10;;;31.30;95.80;;;;;;4141068;28;20054;-70
2021/10/30 06:52:38;;;;;;;2.35;0.82;;;31.20;96.00;;;;;;4134238;28;20528;-72
2021/10/30 06:54:43;;;;;;;1.63;0.90;;;31.00;96.00;;;;;;4115827;28;20563;-73
2021/10/30 06:56:48;;;;;;;5.40;1.10;;;30.90;96.20;;;;;;4123187;28;20178;-72
2021/10/30 06:58:56;;;;;;;3.78;1.00;;;30.90;96.40;;;;;;4171194;28;20371;-72
2021/10/30 07:01:00;;;;;;;2.58;1.33;;;30.80;96.60;;;;;;4155234;28;20072;-71
2021/10/30 07:03:08;;;;;;;3.05;1.20;;;30.80;96.80;;;;;;4166382;28;20040;-72
2021/10/30 07:05:12;;;;;;;1.65;1.10;;;30.90;96.20;;;;;;4184198;28;20040;-71
2021/10/30 07:07:18;;;;;;;1.60;1.00;;;31.10;96.20;;;;;;4193166;28;20048;-71
2021/10/30 07:09:22;;;;;;;4.20;2.47;;;31.10;96.10;;;;;;4192741;28;20475;-72
2021/10/30 07:11:27;;;;;;;2.38;1.33;;;31.20;95.90;;;;;;4192958;28;20048;-71
2021/10/30 07:13:32;;;;;;;1.95;1.23;;;31.20;95.20;;;;;;4187554;28;20080;-72
2021/10/30 07:15:36;;;;;;;2.35;1.20;;;31.10;94.90;;;;;;4193135;28;20056;-70
2021/10/30 07:17:41;;;;;;;3.22;1.17;;;31.20;95.00;;;;;;4192894;28;20827;-71
2021/10/30 07:19:46;;;;;;;1.88;0.93;;;31.30;95.10;;;;;;4191807;28;20075;-72
2021/10/30 07:21:52;;;;;;;4.93;1.05;;;31.20;95.50;;;;;;4192836;28;20142;-71
2021/10/30 07:24:00;;;;;;;2.47;1.10;;;31.10;95.40;;;;;;4183706;28;20051;-71
2021/10/30 07:26:04;;;;;;;2.75;1.00;;;30.90;95.40;;;;;;4189857;28;20558;-70
2021/10/30 07:28:09;;;;;;;1.55;0.93;;;30.80;95.90;;;;;;4191414;28;20508;-70
2021/10/30 07:30:16;;;;;;;2.80;1.20;;;30.70;96.30;;;;;;4190003;28;20463;-70
2021/10/30 07:32:22;;;;;;;2.40;0.77;;;30.60;96.50;;;;;;4205274;28;20048;-70
2021/10/30 07:34:28;;;;;;;2.80;0.90;;;30.60;96.50;;;;;;4187539;28;20041;-71
2021/10/30 07:36:35;;;;;;;2.75;1.00;;;30.60;96.40;;;;;;4193234;28;20040;-71
2021/10/30 07:38:39;;;;;;;2.30;0.93;;;30.50;96.80;;;;;;4194912;28;20044;-71
2021/10/30 07:40:46;;;;;;;2.95;0.90;;;30.50;97.00;;;;;;4194728;28;20033;-71
2021/10/30 07:42:53;;;;;;;3.75;1.10;;;30.50;96.80;;;;;;4189987;28;20438;-73
2021/10/30 07:44:57;;;;;;;2.28;1.05;;;30.50;96.80;;;;;;4184757;28;20237;-74
2021/10/30 07:47:02;;;;;;;4.03;1.00;;;30.70;97.10;;;;;;4192083;28;20048;-72
2021/10/30 07:49:07;;;;;;;1.88;0.90;;;30.70;95.90;;;;;;4192593;28;20085;-70
2021/10/30 07:51:12;;;;;;;2.15;0.70;;;30.90;96.50;;;;;;4192088;28;20182;-71
2021/10/30 07:53:18;;;;;;;3.10;0.73;;;31.00;95.20;;;;;;4183432;28;20131;-70
2021/10/30 07:55:22;;;;;;;1.80;0.82;;;31.10;95.40;;;;;;4189274;28;20044;-71
2021/10/30 07:57:27;;;;;;;2.42;1.10;;;31.20;95.30;;;;;;4193272;28;20391;-71
2021/10/30 07:59:31;;;;;;;2.33;1.10;;;31.20;95.30;;;;;;4194101;28;20040;-71
2021/10/30 08:01:36;;;;;;;1.63;1.10;;;31.20;94.90;;;;;;4190161;28;20132;-71
2021/10/30 08:03:46;;;;;;;2.60;0.98;;;31.30;95.70;;;;;;4183747;28;20040;-72
2021/10/30 08:05:51;;;;;;;2.42;0.90;;;31.30;95.60;;;;;;4192563;28;20159;-72
2021/10/30 08:07:56;;;;;;;1.90;0.90;;;31.20;95.50;;;;;;4190862;28;20048;-67
2021/10/30 08:10:02;;;;;;;1.98;0.77;;;31.10;94.80;;;;;;4192112;28;20064;-70
2021/10/30 08:12:07;;;;;;;3.00;0.98;;;30.90;95.20;;;;;;4191766;28;20044;-70
2021/10/30 08:14:12;;;;;;;2.85;0.80;;;30.90;95.50;;;;;;4181489;28;20044;-70
2021/10/30 08:16:17;;;;;;;2.17;0.80;;;30.90;95.10;;;;;;4192560;28;20044;-71
2021/10/30 08:18:21;;;;;;;2.45;1.00;;;30.90;95.30;;;;;;4191961;28;20345;-71
2021/10/30 08:20:31;;;;;;;3.17;1.10;;;30.80;95.40;;;;;;4194758;28;20241;-70
2021/10/30 08:22:36;;;;;;;3.20;1.35;;;30.80;95.70;;;;;;4185851;28;20681;-71
2021/10/30 08:24:40;;;;;;;1.70;0.88;;;30.90;95.70;;;;;;4186111;28;20447;-70
2021/10/30 08:26:45;;;;;;;2.22;0.73;;;31.00;94.20;;;;;;4193784;28;20051;-71
2021/10/30 08:28:50;;;;;;;2.50;1.00;;;31.00;94.20;;;;;;4191171;28;20044;-71
2021/10/30 08:30:54;;;;;;;1.92;0.90;;;31.10;93.60;;;;;;4190639;28;20048;-72
2021/10/30 08:33:02;;;;;;;1.80;0.63;;;31.10;93.40;;;;;;4187020;28;20071;-69
2021/10/30 08:35:07;;;;;;;1.02;0.63;;;31.10;93.60;;;;;;4185274;28;20063;-69
2021/10/30 08:37:12;;;;;;;2.83;0.80;;;31.10;94.00;;;;;;4191514;28;20052;-66
2021/10/30 08:39:16;;;;;;;2.13;0.80;;;31.20;94.20;;;;;;4188309;28;20138;-69
2021/10/30 08:41:21;;;;;;;2.38;0.77;;;31.30;94.40;;;;;;4187967;28;20048;-68
2021/10/30 08:43:27;;;;;;;2.97;0.90;;;31.30;94.00;;;;;;4183434;28;20044;-68
2021/10/30 08:45:32;;;;;;;2.95;1.08;;;31.30;93.90;;;;;;4185469;28;20044;-68
2021/10/30 08:47:38;;;;;;;1.80;1.00;;;31.20;93.90;;;;;;4188559;28;20465;-68
2021/10/30 08:49:42;;;;;;;5.20;1.00;;;31.30;94.20;;;;;;4189936;28;20056;-68
2021/10/30 08:51:48;;;;;;;2.20;0.98;;;31.30;94.50;;;;;;4190075;28;20056;-67
2021/10/30 08:53:52;;;;;;;2.30;0.93;;;31.30;94.10;;;;;;4173512;28;20585;-68
2021/10/30 08:55:58;;;;;;;1.95;0.82;;;31.30;94.20;;;;;;4188056;28;20048;-67
2021/10/30 08:58:08;;;;;;;2.20;1.00;;;31.30;94.00;;;;;;4190743;28;20044;-67
2021/10/30 09:00:25;;;;;;;2.65;0.88;;;31.30;94.10;;;;;;4188599;28;20048;-68
2021/10/30 09:02:33;;;;;;;2.00;0.90;;;31.40;93.60;;;;;;4180283;28;20048;-67
2021/10/30 09:04:38;;;;;;;1.08;0.70;;;31.30;93.40;;;;;;4180938;28;20357;-69
2021/10/30 09:07:00;;;;;;;3.53;0.90;;;31.40;93.80;;;;;;4187276;28;20188;-67
2021/10/30 09:09:12;;;;;;;2.50;1.02;;;31.40;94.10;;;;;;4191278;28;20103;-67
2021/10/30 09:11:18;;;;;;;3.35;1.52;;;31.40;93.50;;;;;;4176242;28;20048;-69
2021/10/30 09:13:26;;;;;;;7.35;4.88;;;31.40;93.80;;;;;;4180262;28;20613;-68
2021/10/30 09:15:46;;;;;;;19.40;13.27;;;31.50;94.00;;;;;;4182945;28;20127;-67
2021/10/30 09:17:51;;;;;;;19.63;13.63;;;31.40;94.10;;;;;;4185572;28;20331;-68
2021/10/30 09:19:57;;;;;;;11.57;8.88;;;31.40;94.20;;;;;;4189946;28;20048;-68
2021/10/30 09:22:04;;;;;;;5.40;3.22;;;31.30;94.30;;;;;;4189731;28;20068;-68
2021/10/30 09:24:13;;;;;;;5.32;3.08;;;31.30;94.30;;;;;;4179300;28;20423;-68
2021/10/30 09:26:20;;;;;;;3.38;2.38;;;31.20;94.60;;;;;;4190668;28;20041;-68
2021/10/30 09:28:27;;;;;;;5.38;2.40;;;31.10;94.50;;;;;;4187802;28;20113;-68
2021/10/30 09:30:36;;;;;;;4.75;3.40;;;31.10;94.70;;;;;;4188522;28;20048;-69
2021/10/30 09:32:41;;;;;;;6.68;5.10;;;31.10;94.70;;;;;;4184078;28;20476;-68
2021/10/30 09:34:45;;;;;;;10.00;6.75;;;31.10;94.70;;;;;;4179908;28;20052;-68
2021/10/30 09:36:50;;;;;;;11.75;9.00;;;31.10;94.90;;;;;;4189745;28;20553;-67
2021/10/30 09:38:57;;;;;;;10.38;7.40;;;31.10;95.20;;;;;;4167886;28;20092;-68
2021/10/30 09:41:04;;;;;;;10.18;7.05;;;31.10;95.20;;;;;;4184084;28;20048;-68
2021/10/30 09:43:17;;;;;;;29.73;18.80;;;31.10;95.30;;;;;;4180683;28;20427;-68
2021/10/30 09:45:22;;;;;;;34.53;23.77;;;31.10;95.40;;;;;;4187149;28;20059;-68
2021/10/30 09:47:26;;;;;;;29.98;19.08;;;31.10;95.60;;;;;;4171884;28;20158;-69
2021/10/30 09:49:39;;;;;;;24.67;16.60;;;31.10;96.30;;;;;;4193452;28;20457;-69
2021/10/30 09:51:44;;;;;;;11.82;6.35;;;31.00;96.10;;;;;;4188405;28;20048;-68
2021/10/30 09:53:49;;;;;;;9.20;5.05;;;31.10;96.10;;;;;;4179388;28;20056;-67
2021/10/30 09:55:57;;;;;;;6.80;4.10;;;31.00;96.20;;;;;;4193362;28;20052;-68
2021/10/30 09:58:03;;;;;;;9.13;5.00;;;31.00;96.40;;;;;;4184772;28;20048;-66
2021/10/30 10:00:09;;;;;;;7.13;4.78;;;31.00;96.40;;;;;;4188653;28;20392;-67
2021/10/30 10:02:13;;;;;;;6.90;3.00;;;31.00;96.30;;;;;;4188025;28;20385;-68
2021/10/30 10:04:19;;;;;;;4.20;2.10;;;31.00;96.40;;;;;;4178881;28;20048;-67
2021/10/30 10:06:24;;;;;;;4.57;1.52;;;30.80;95.90;;;;;;4166141;28;20092;-68
2021/10/30 10:08:28;;;;;;;2.88;1.48;;;30.70;95.90;;;;;;4186974;28;20063;-69
2021/10/30 10:10:33;;;;;;;6.38;1.80;;;30.70;96.40;;;;;;4188835;28;20118;-68
2021/10/30 10:12:37;;;;;;;7.88;1.88;;;30.70;96.50;;;;;;4184659;28;20048;-68
2021/10/30 10:14:48;;;;;;;4.65;1.63;;;30.70;96.80;;;;;;4181913;28;20493;-68
2021/10/30 10:16:54;;;;;;;6.05;1.98;;;30.60;96.90;;;;;;4188622;28;20060;-68
2021/10/30 10:18:59;;;;;;;7.38;3.00;;;30.60;96.90;;;;;;4187428;28;20051;-68
2021/10/30 10:21:04;;;;;;;4.90;2.67;;;30.60;96.60;;;;;;4187606;28;20127;-68
2021/10/30 10:23:08;;;;;;;4.63;2.17;;;30.60;96.90;;;;;;4184076;28;20045;-69
2021/10/30 10:25:29;;;;;;;3.75;1.42;;;30.60;96.80;;;;;;4183872;28;20545;-67
2021/10/30 10:27:37;;;;;;;4.30;2.10;;;30.50;96.70;;;;;;4189118;28;20101;-69
2021/10/30 10:29:45;;;;;;;4.78;2.17;;;30.50;96.90;;;;;;4184162;28;20574;-69
2021/10/30 10:31:52;;;;;;;7.60;2.70;;;30.50;97.10;;;;;;4169434;28;20283;-68
2021/10/30 10:34:11;;;;;;;9.23;3.15;;;30.60;97.40;;;;;;4176217;28;20068;-69
2021/10/30 10:36:17;;;;;;;8.13;3.88;;;30.60;97.70;;;;;;4185096;28;20111;-69
2021/10/30 10:38:47;;;;;;;15.80;4.63;;;30.60;97.80;;;;;;4186924;28;20098;-68
2021/10/30 10:40:51;;;;;;;9.38;5.95;;;30.50;97.90;;;;;;4183859;28;20044;-67
2021/10/30 10:42:55;;;;;;;11.00;5.88;;;30.50;98.10;;;;;;4183005;28;20049;-68
2021/10/30 10:45:11;;;;;;;11.57;6.95;;;30.40;98.30;;;;;;4181964;28;20045;-68
2021/10/30 10:47:53;;;;;;;12.65;7.45;;;30.40;98.60;;;;;;4185865;28;20039;-67
2021/10/30 10:50:16;;;;;;;10.80;6.53;;;30.40;98.80;;;;;;4160519;28;20045;-67
2021/10/30 10:52:23;;;;;;;9.15;4.75;;;30.40;98.90;;;;;;4180602;28;20037;-69
2021/10/30 10:54:51;;;;;;;10.10;4.75;;;30.40;98.90;;;;;;4180162;28;20067;-68
2021/10/30 10:57:03;;;;;;;9.77;4.80;;;30.30;98.70;;;;;;4136713;28;20064;-68